createdAt,value
2022-09-17T00:01:33.281Z,13.00
2022-09-17T00:04:04.288Z,13.00
2022-09-17T00:06:33.193Z,13.10
2022-09-17T00:09:00.422Z,13.10
2022-09-17T00:11:33.845Z,13.00
2022-09-17T00:14:03.509Z,13.00
2022-09-17T00:16:39.727Z,13.00
2022-09-17T00:19:12.670Z,13.10
2022-09-17T00:21:41.713Z,13.10
2022-09-17T00:24:12.885Z,13.10
2022-09-17T00:26:40.289Z,13.10
2022-09-17T00:29:07.692Z,13.00
2022-09-17T00:31:35.824Z,13.10
2022-09-17T00:34:05.239Z,13.10
2022-09-17T00:36:35.857Z,13.10
2022-09-17T00:39:04.513Z,13.00
2022-09-17T00:41:33.815Z,13.00
2022-09-17T00:44:22.666Z,13.00
2022-09-17T00:46:50.890Z,12.90
2022-09-17T00:49:30.321Z,12.90
2022-09-17T00:52:10.556Z,12.80
2022-09-17T00:54:41.234Z,12.80
2022-09-17T00:57:09.454Z,12.80
2022-09-17T00:59:37.504Z,12.80
2022-09-17T01:02:05.680Z,12.80
2022-09-17T01:04:33.206Z,12.80
2022-09-17T01:07:10.350Z,12.90
2022-09-17T01:09:43.485Z,12.90
2022-09-17T01:12:13.902Z,12.90
2022-09-17T01:14:47.118Z,13.00
2022-09-17T01:17:44.817Z,13.00
2022-09-17T01:20:38.301Z,13.00
2022-09-17T01:23:27.704Z,13.00
2022-09-17T01:26:28.958Z,13.00
2022-09-17T01:29:05.355Z,12.90
2022-09-17T01:31:53.742Z,12.90
2022-09-17T01:34:36.900Z,12.90
2022-09-17T01:37:06.112Z,12.90
2022-09-17T01:40:01.048Z,12.90
2022-09-17T01:42:39.319Z,12.90
2022-09-17T01:45:25.654Z,12.90
2022-09-17T01:48:03.012Z,12.80
2022-09-17T01:50:38.276Z,12.80
2022-09-17T01:53:08.010Z,12.80
2022-09-17T01:55:39.754Z,12.70
2022-09-17T01:58:25.465Z,12.70
2022-09-17T02:00:59.351Z,12.60
2022-09-17T02:03:52.339Z,12.70
2022-09-17T02:06:30.131Z,12.60
2022-09-17T02:09:01.988Z,12.60
2022-09-17T02:11:30.375Z,12.60
2022-09-17T02:14:06.073Z,12.50
2022-09-17T02:16:36.120Z,12.60
2022-09-17T02:19:13.659Z,12.60
2022-09-17T02:22:18.376Z,12.60
2022-09-17T02:25:06.530Z,12.60
2022-09-17T02:27:46.358Z,12.70
2022-09-17T02:30:14.917Z,12.60
2022-09-17T02:32:42.786Z,12.70
2022-09-17T02:35:13.976Z,12.70
2022-09-17T02:37:41.882Z,12.70
2022-09-17T02:40:11.366Z,12.70
2022-09-17T02:43:07.120Z,12.70
2022-09-17T02:45:59.005Z,12.70
2022-09-17T02:48:58.824Z,12.70
2022-09-17T02:51:41.397Z,12.70
2022-09-17T02:54:27.385Z,12.70
2022-09-17T02:57:25.897Z,12.70
2022-09-17T02:59:59.064Z,12.70
2022-09-17T03:02:32.550Z,12.60
2022-09-17T03:05:01.174Z,12.60
2022-09-17T03:07:29.361Z,12.70
2022-09-17T03:09:56.844Z,12.70
2022-09-17T03:12:24.923Z,12.70
2022-09-17T03:14:52.456Z,12.70
2022-09-17T03:17:19.800Z,12.70
2022-09-17T03:19:47.126Z,12.60
2022-09-17T03:22:14.917Z,12.60
2022-09-17T03:24:42.257Z,12.60
2022-09-17T03:27:09.707Z,12.60
2022-09-17T03:29:37.145Z,12.60
2022-09-17T03:32:05.673Z,12.50
2022-09-17T03:34:33.137Z,12.50
2022-09-17T03:37:00.594Z,12.60
2022-09-17T03:39:29.278Z,12.60
2022-09-17T03:41:56.747Z,12.60
2022-09-17T03:44:24.112Z,12.60
2022-09-17T03:46:51.685Z,12.60
2022-09-17T03:49:19.116Z,12.60
2022-09-17T03:51:46.546Z,12.70
2022-09-17T03:54:14.000Z,12.70
2022-09-17T03:56:41.431Z,12.70
2022-09-17T03:59:08.917Z,12.70
2022-09-17T04:01:36.586Z,12.70
2022-09-17T04:04:04.680Z,12.80
2022-09-17T04:06:32.223Z,12.80
2022-09-17T04:09:01.127Z,12.80
2022-09-17T04:11:28.519Z,12.80
2022-09-17T04:13:55.989Z,12.80
2022-09-17T04:16:23.549Z,12.80
2022-09-17T04:18:51.138Z,12.80
2022-09-17T04:21:18.489Z,12.80
2022-09-17T04:23:45.920Z,12.80
2022-09-17T04:26:13.451Z,12.90
2022-09-17T04:28:40.809Z,12.80
2022-09-17T04:31:08.316Z,12.80
2022-09-17T04:33:36.000Z,12.80
2022-09-17T04:36:04.133Z,12.80
2022-09-17T04:38:31.571Z,12.70
2022-09-17T04:40:59.468Z,12.70
2022-09-17T04:43:26.894Z,12.70
2022-09-17T04:45:54.292Z,12.70
2022-09-17T04:48:21.693Z,12.60
2022-09-17T04:50:49.061Z,12.60
2022-09-17T04:53:18.881Z,12.60
2022-09-17T04:55:46.266Z,12.60
2022-09-17T04:58:13.918Z,12.60
2022-09-17T05:00:42.593Z,12.60
2022-09-17T05:03:10.088Z,12.70
2022-09-17T05:05:37.493Z,12.60
2022-09-17T05:08:04.898Z,12.70
2022-09-17T05:10:32.264Z,12.70
2022-09-17T05:12:59.787Z,12.70
2022-09-17T05:15:27.922Z,12.70
2022-09-17T05:17:55.459Z,12.70
2022-09-17T05:20:22.978Z,12.70
2022-09-17T05:22:52.553Z,12.70
2022-09-17T05:25:25.253Z,12.80
2022-09-17T05:27:53.865Z,12.80
2022-09-17T05:30:21.633Z,12.80
2022-09-17T05:32:49.442Z,12.80
2022-09-17T05:35:16.848Z,13.00
2022-09-17T05:37:44.306Z,12.90
2022-09-17T05:40:11.811Z,13.00
2022-09-17T05:42:39.282Z,13.10
2022-09-17T05:45:07.346Z,13.10
2022-09-17T05:47:35.523Z,13.20
2022-09-17T05:50:03.008Z,13.30
2022-09-17T05:52:30.496Z,13.50
2022-09-17T05:54:57.889Z,13.60
2022-09-17T05:57:25.382Z,13.60
2022-09-17T05:59:52.841Z,13.70
2022-09-17T06:02:20.356Z,13.70
2022-09-17T06:04:47.736Z,13.70
2022-09-17T06:07:15.127Z,13.70
2022-09-17T06:09:42.501Z,13.70
2022-09-17T06:12:09.936Z,13.80
2022-09-17T06:14:37.522Z,13.80
2022-09-17T06:17:05.257Z,13.80
2022-09-17T06:19:32.722Z,13.90
2022-09-17T06:22:00.198Z,14.10
2022-09-17T06:24:28.115Z,14.10
2022-09-17T06:26:55.490Z,14.20
2022-09-17T06:29:22.888Z,14.30
2022-09-17T06:31:50.550Z,14.40
2022-09-17T06:34:18.235Z,14.40
2022-09-17T06:36:45.843Z,14.50
2022-09-17T06:39:13.395Z,14.60
2022-09-17T06:41:43.446Z,14.70
2022-09-17T06:44:10.995Z,14.80
2022-09-17T06:46:38.474Z,14.90
2022-09-17T06:49:06.043Z,14.90
2022-09-17T06:51:33.867Z,15.10
2022-09-17T06:54:01.759Z,15.20
2022-09-17T06:56:29.152Z,15.30
2022-09-17T06:58:56.619Z,15.40
2022-09-17T07:01:24.073Z,15.60
2022-09-17T07:03:51.481Z,15.70
2022-09-17T07:06:18.950Z,15.70
2022-09-17T07:08:47.237Z,15.80
2022-09-17T07:11:16.077Z,15.70
2022-09-17T07:13:43.563Z,15.80
2022-09-17T07:16:11.468Z,15.80
2022-09-17T07:18:40.248Z,15.90
2022-09-17T07:21:10.044Z,15.90
2022-09-17T07:23:37.924Z,15.90
2022-09-17T07:26:08.248Z,15.90
2022-09-17T07:28:38.430Z,15.90
2022-09-17T07:31:06.484Z,15.70
2022-09-17T07:33:35.634Z,15.50
2022-09-17T07:36:09.033Z,15.40
2022-09-17T07:38:36.445Z,15.50
2022-09-17T07:41:05.036Z,15.40
2022-09-17T07:43:34.633Z,15.30
2022-09-17T07:46:05.000Z,15.40
2022-09-17T07:48:33.279Z,15.60
2022-09-17T07:51:00.803Z,15.70
2022-09-17T07:53:28.408Z,15.80
2022-09-17T07:56:01.914Z,15.90
2022-09-17T07:58:32.146Z,16.00
2022-09-17T08:01:04.529Z,15.90
2022-09-17T08:03:32.002Z,15.70
2022-09-17T08:06:10.131Z,15.70
2022-09-17T08:08:39.544Z,15.50
2022-09-17T08:11:08.251Z,15.70
2022-09-17T08:13:36.494Z,15.80
2022-09-17T08:16:06.758Z,16.00
2022-09-17T08:18:35.830Z,16.10
2022-09-17T08:21:05.708Z,16.20
2022-09-17T08:23:36.024Z,16.40
2022-09-17T08:26:06.184Z,16.50
2022-09-17T08:28:33.502Z,16.40
2022-09-17T08:31:10.184Z,16.50
2022-09-17T08:33:39.551Z,16.50
2022-09-17T08:36:08.965Z,16.60
2022-09-17T08:38:38.392Z,16.70
2022-09-17T08:41:15.143Z,16.70
2022-09-17T08:44:06.346Z,16.90
2022-09-17T08:46:47.416Z,16.90
2022-09-17T08:49:26.042Z,17.00
2022-09-17T08:52:10.733Z,17.00
2022-09-17T08:54:58.143Z,16.80
2022-09-17T08:57:50.444Z,16.70
2022-09-17T09:00:20.847Z,16.80
2022-09-17T09:03:28.416Z,17.00
2022-09-17T09:05:56.603Z,17.20
2022-09-17T09:08:58.099Z,17.30
2022-09-17T09:11:28.037Z,17.40
2022-09-17T09:14:14.847Z,17.50
2022-09-17T09:16:46.001Z,17.60
2022-09-17T09:19:20.130Z,17.80
2022-09-17T09:21:54.894Z,17.80
2022-09-17T09:24:33.208Z,17.70
2022-09-17T09:27:28.255Z,17.80
2022-09-17T09:29:58.652Z,17.70
2022-09-17T09:32:59.322Z,17.60
2022-09-17T09:35:31.421Z,17.50
2022-09-17T09:38:04.627Z,17.30
2022-09-17T09:40:36.347Z,17.40
2022-09-17T09:43:17.933Z,17.40
2022-09-17T09:46:00.561Z,17.50
2022-09-17T09:49:19.137Z,17.60
2022-09-17T09:52:03.723Z,17.50
2022-09-17T09:54:49.350Z,17.60
2022-09-17T09:57:22.845Z,17.50
2022-09-17T09:59:50.193Z,17.50
2022-09-17T10:02:17.967Z,17.40
2022-09-17T10:04:46.749Z,17.40
2022-09-17T10:07:15.692Z,17.40
2022-09-17T10:09:46.463Z,17.40
2022-09-17T10:12:13.841Z,17.60
2022-09-17T10:14:48.472Z,17.60
2022-09-17T10:17:22.025Z,17.50
2022-09-17T10:20:11.397Z,17.50
2022-09-17T10:22:44.791Z,17.50
2022-09-17T10:25:42.198Z,17.60
2022-09-17T10:28:33.103Z,17.60
2022-09-17T10:31:08.611Z,17.70
2022-09-17T10:33:55.233Z,17.70
2022-09-17T10:36:42.360Z,17.80
2022-09-17T10:39:20.212Z,17.90
2022-09-17T10:42:14.120Z,18.00
2022-09-17T10:44:58.746Z,18.00
2022-09-17T10:47:32.348Z,18.20
2022-09-17T10:50:21.256Z,18.30
2022-09-17T10:52:52.934Z,18.20
2022-09-17T10:55:33.609Z,18.20
2022-09-17T10:58:09.856Z,18.20
2022-09-17T11:00:44.253Z,18.30
2022-09-17T11:03:41.576Z,18.40
2022-09-17T11:06:33.691Z,18.50
2022-09-17T11:09:36.443Z,18.60
2022-09-17T11:12:31.173Z,18.70
2022-09-17T11:15:07.504Z,19.00
2022-09-17T11:17:50.205Z,19.10
2022-09-17T11:20:41.446Z,19.30
2022-09-17T11:23:27.038Z,19.40
2022-09-17T11:26:01.094Z,19.60
2022-09-17T11:28:54.054Z,19.90
2022-09-17T11:31:49.754Z,20.20
2022-09-17T11:34:32.775Z,20.70
2022-09-17T11:37:21.243Z,21.00
2022-09-17T11:39:58.536Z,21.50
2022-09-17T11:42:32.877Z,21.70
2022-09-17T11:45:33.513Z,21.60
2022-09-17T11:48:04.349Z,21.30
2022-09-17T11:50:57.329Z,21.00
2022-09-17T11:53:53.804Z,20.80
2022-09-17T11:56:43.303Z,20.50
2022-09-17T11:59:29.889Z,20.40
2022-09-17T12:02:02.556Z,20.20
2022-09-17T12:04:42.848Z,20.20
2022-09-17T12:07:30.709Z,20.30
2022-09-17T12:10:09.701Z,20.40
2022-09-17T12:12:50.537Z,20.60
2022-09-17T12:15:25.925Z,20.60
2022-09-17T12:18:37.521Z,20.60
2022-09-17T12:21:10.618Z,20.40
2022-09-17T13:42:08.209Z,18.10
2022-09-17T13:44:39.605Z,18.70
2022-09-17T13:47:25.318Z,18.90
2022-09-17T13:50:02.563Z,19.10
2022-09-17T13:52:50.599Z,19.30
2022-09-17T13:55:51.923Z,19.50
2022-09-17T13:58:19.168Z,19.70
2022-09-17T14:00:49.587Z,19.90
2022-09-17T14:03:30.889Z,19.90
2022-09-17T14:06:19.627Z,20.10
2022-09-17T14:08:47.730Z,20.20
2022-09-17T14:11:28.275Z,20.10
2022-09-17T14:14:04.908Z,20.00
2022-09-17T14:16:42.617Z,19.70
2022-09-17T14:19:16.248Z,19.60
2022-09-17T14:21:59.759Z,19.30
2022-09-17T14:24:44.570Z,19.10
2022-09-17T14:27:19.058Z,19.10
2022-09-17T14:30:22.605Z,19.10
2022-09-17T14:33:04.989Z,18.70
2022-09-17T14:35:49.390Z,18.60
2022-09-17T14:38:22.784Z,18.60
2022-09-17T14:40:54.033Z,18.60
2022-09-17T14:43:53.908Z,18.70
2022-09-17T14:46:21.282Z,19.10
2022-09-17T14:48:49.123Z,19.30
2022-09-17T14:51:19.864Z,19.30
2022-09-17T14:53:49.071Z,19.10
2022-09-17T14:56:23.361Z,19.10
2022-09-17T15:23:49.074Z,17.80
2022-09-17T15:26:22.144Z,17.30
2022-09-17T15:28:50.679Z,17.20
2022-09-17T15:31:19.724Z,17.10
2022-09-17T15:33:47.613Z,17.10
2022-09-17T15:36:22.815Z,16.90
2022-09-17T15:38:51.507Z,16.80
2022-09-17T15:41:20.782Z,16.70
2022-09-17T15:43:49.558Z,16.60
2022-09-17T15:46:29.014Z,16.50
2022-09-17T15:48:59.425Z,16.40
2022-09-17T15:51:32.578Z,16.40
2022-09-17T15:54:05.626Z,16.40
2022-09-17T15:56:35.726Z,16.30
2022-09-17T15:59:23.179Z,16.20
2022-09-17T16:01:54.685Z,16.20
2022-09-17T16:04:30.838Z,16.10
2022-09-17T16:07:27.282Z,16.10
2022-09-17T16:09:54.755Z,16.00
2022-09-17T16:12:25.460Z,16.00
2022-09-17T16:14:55.325Z,16.00
2022-09-17T16:17:43.152Z,15.80
2022-09-17T16:20:24.846Z,15.80
2022-09-17T16:22:53.477Z,15.80
2022-09-17T16:25:30.579Z,15.70
2022-09-17T16:28:10.604Z,15.70
2022-09-17T16:30:40.636Z,15.60
2022-09-17T16:33:11.622Z,15.60
2022-09-17T16:35:39.095Z,15.50
2022-09-17T16:38:06.692Z,15.50
2022-09-17T16:40:34.417Z,15.50
2022-09-17T16:43:05.072Z,15.40
2022-09-17T16:45:32.483Z,15.40
2022-09-17T16:48:00.013Z,15.40
2022-09-17T16:50:27.564Z,15.40
2022-09-17T16:52:55.199Z,15.50
2022-09-17T16:55:22.559Z,15.40
2022-09-17T16:57:49.997Z,15.40
2022-09-17T17:00:20.968Z,15.40
2022-09-17T17:02:57.948Z,15.30
2022-09-17T17:05:26.471Z,15.40
2022-09-17T17:07:55.379Z,15.40
2022-09-17T17:10:23.786Z,15.30
2022-09-17T17:12:51.118Z,15.30
2022-09-17T17:15:19.355Z,15.30
2022-09-17T17:17:46.815Z,15.30
2022-09-17T17:20:14.591Z,15.30
2022-09-17T17:22:43.632Z,15.20
2022-09-17T17:25:15.108Z,15.20
2022-09-17T17:27:42.531Z,15.10
2022-09-17T17:30:11.351Z,15.10
2022-09-17T17:32:38.793Z,15.00
2022-09-17T17:35:07.113Z,15.00
2022-09-17T17:37:34.586Z,15.00
2022-09-17T17:40:06.906Z,15.00
2022-09-17T17:42:38.217Z,15.00
2022-09-17T17:45:07.286Z,14.90
2022-09-17T17:47:35.061Z,14.90
2022-09-17T17:50:02.947Z,14.90
2022-09-17T17:52:30.365Z,14.80
2022-09-17T17:54:57.835Z,14.80
2022-09-17T17:57:25.414Z,14.80
2022-09-17T17:59:52.763Z,14.80
2022-09-17T18:02:20.172Z,14.80
2022-09-17T18:04:47.765Z,14.80
2022-09-17T18:07:15.098Z,14.80
2022-09-17T18:09:42.654Z,14.80
2022-09-17T18:12:10.083Z,14.80
2022-09-17T18:14:37.436Z,14.80
2022-09-17T18:17:05.180Z,14.80
2022-09-17T18:19:32.591Z,14.70
2022-09-17T18:22:00.059Z,14.60
2022-09-17T18:24:27.461Z,14.70
2022-09-17T18:26:54.861Z,14.60
2022-09-17T18:29:22.262Z,14.60
2022-09-17T18:31:49.706Z,14.60
2022-09-17T18:34:17.484Z,14.60
2022-09-17T18:36:50.289Z,14.60
2022-09-17T18:42:08.226Z,14.50
2022-09-17T18:44:35.677Z,14.40
2022-09-17T18:47:04.390Z,14.30
2022-09-17T18:49:31.849Z,14.40
2022-09-17T18:51:59.258Z,14.40
2022-09-17T18:54:26.570Z,14.40
2022-09-17T18:56:53.954Z,14.50
2022-09-17T18:59:21.363Z,14.50
2022-09-17T19:01:49.154Z,14.50
2022-09-17T19:04:16.625Z,14.40
2022-09-17T19:06:44.041Z,14.40
2022-09-17T19:09:11.874Z,14.30
2022-09-17T19:11:39.198Z,14.30
2022-09-17T19:14:10.157Z,14.30
2022-09-17T19:16:37.552Z,14.30
2022-09-17T19:19:04.887Z,14.30
2022-09-17T19:21:32.314Z,14.30
2022-09-17T19:23:59.685Z,14.30
2022-09-17T19:26:27.730Z,14.30
2022-09-17T19:29:03.488Z,14.30
2022-09-17T19:31:30.864Z,14.30
2022-09-17T19:33:59.106Z,14.20
2022-09-17T19:36:26.696Z,14.20
2022-09-17T19:38:55.105Z,14.10
2022-09-17T19:41:23.374Z,14.20
2022-09-17T19:43:55.113Z,14.20
2022-09-17T19:46:25.484Z,14.20
2022-09-17T19:48:55.493Z,14.20
2022-09-17T19:51:25.687Z,14.10
2022-09-17T19:53:53.363Z,14.10
2022-09-17T19:56:23.109Z,14.10
2022-09-17T19:58:51.193Z,14.10
2022-09-17T20:01:19.188Z,14.10
2022-09-17T20:03:46.841Z,14.10
2022-09-17T20:06:16.952Z,14.20
2022-09-17T20:08:47.199Z,14.20
2022-09-17T20:11:15.809Z,14.10
2022-09-17T20:13:43.746Z,14.10
2022-09-17T20:16:14.865Z,14.10
2022-09-17T20:18:43.992Z,14.10
2022-09-17T20:21:14.146Z,14.10
2022-09-17T20:23:41.882Z,14.00
2022-09-17T20:26:09.330Z,14.00
2022-09-17T20:28:36.781Z,14.00
2022-09-17T20:31:07.108Z,13.90
2022-09-17T20:33:34.739Z,13.90
2022-09-17T20:36:07.700Z,13.90
2022-09-17T20:41:23.148Z,13.80
2022-09-17T20:43:52.687Z,13.80
2022-09-17T20:46:27.607Z,13.80
2022-09-17T20:48:57.795Z,13.80
2022-09-17T20:51:28.670Z,13.90
2022-09-17T20:53:57.461Z,13.80
2022-09-17T20:56:31.580Z,13.80
2022-09-17T20:59:14.492Z,13.80
2022-09-17T21:01:45.328Z,13.70
2022-09-17T21:04:16.190Z,13.70
2022-09-17T21:06:44.441Z,13.70
2022-09-17T21:09:15.988Z,13.70
2022-09-17T21:11:47.845Z,13.70
2022-09-17T21:14:16.071Z,13.70
2022-09-17T21:16:44.122Z,13.70
2022-09-17T21:19:13.281Z,13.70
2022-09-17T21:21:40.647Z,13.70
2022-09-17T21:24:10.273Z,13.60
2022-09-17T21:26:37.799Z,13.60
2022-09-17T21:29:05.332Z,13.60
2022-09-17T21:31:34.912Z,13.60
2022-09-17T21:34:04.769Z,13.60
2022-09-17T21:36:34.744Z,13.60
2022-09-17T21:39:13.530Z,13.70
2022-09-17T21:41:42.934Z,13.70
2022-09-17T21:44:12.049Z,13.70
2022-09-17T21:46:40.883Z,13.70
2022-09-17T21:49:08.716Z,13.70
2022-09-17T21:51:38.781Z,13.70
2022-09-17T21:54:11.670Z,13.70
2022-09-17T21:56:39.328Z,13.70
2022-09-17T21:59:08.820Z,13.70
2022-09-17T22:01:46.866Z,13.70
2022-09-17T22:04:19.957Z,13.70
2022-09-17T22:06:49.319Z,13.70
2022-09-17T22:09:25.290Z,13.70
2022-09-17T22:11:53.443Z,13.60
2022-09-17T22:14:23.837Z,13.60
2022-09-17T22:16:57.105Z,13.60
2022-09-17T22:19:26.131Z,13.60
2022-09-17T22:21:55.438Z,13.60
2022-09-17T22:24:23.768Z,13.60
2022-09-17T22:26:57.265Z,13.50
2022-09-17T22:29:27.148Z,13.50
2022-09-17T22:31:54.532Z,13.50
2022-09-17T22:34:23.208Z,13.50
2022-09-17T22:36:50.921Z,13.50
2022-09-17T22:39:21.451Z,13.50
2022-09-17T22:41:49.270Z,13.50
2022-09-17T22:44:19.151Z,13.40
2022-09-17T22:46:51.748Z,13.50
2022-09-17T22:49:19.996Z,13.40
2022-09-17T22:51:47.617Z,13.40
2022-09-17T22:54:16.984Z,13.40
2022-09-17T22:56:45.958Z,13.30
2022-09-17T22:59:13.348Z,13.30
2022-09-17T23:01:41.363Z,13.20
2022-09-17T23:04:09.715Z,13.20
2022-09-17T23:06:38.967Z,13.30
2022-09-17T23:09:07.043Z,13.30
2022-09-17T23:11:37.822Z,13.30
2022-09-17T23:14:11.689Z,13.30
2022-09-17T23:16:45.648Z,13.30
2022-09-17T23:19:14.012Z,13.30
2022-09-17T23:21:41.938Z,13.30
2022-09-17T23:24:20.363Z,13.30
2022-09-17T23:26:48.602Z,13.30
2022-09-17T23:29:16.426Z,13.30
2022-09-17T23:31:43.833Z,13.30
2022-09-17T23:34:11.238Z,13.30
2022-09-17T23:36:39.934Z,13.30
2022-09-17T23:39:09.255Z,13.30
2022-09-17T23:41:43.361Z,13.30
2022-09-17T23:44:15.393Z,13.30
2022-09-17T23:46:44.959Z,13.30
2022-09-17T23:49:13.675Z,13.30
2022-09-17T23:51:41.651Z,13.30
2022-09-17T23:54:09.237Z,13.20
2022-09-17T23:56:36.923Z,13.20
2022-09-17T23:59:04.919Z,13.20
